METAR Data
IDs: Format: Raw Decoded Include TAF

Data at: 0240 UTC 12 May 2021

METAR for:TKPK (St Kitts/Bradshaw In, K, AT)
Text:TKPK 112300Z 08011KT 9999 FEW019 SCT042 26/23 Q1017
Temperature: 26.0°C ( 79°F)
Dewpoint: 23.0°C ( 73°F) [RH = 84%]
Pressure (altimeter):30.03 inches Hg (1017.0 mb)
Winds:from the E (80 degrees) at 13 MPH (11 knots; 5.7 m/s)
Visibility:6 or more sm (10+ km)
Ceiling:at least 12,000 feet AGL
Clouds: few clouds at 1900 feet AGL, scattered clouds at 4200 feet AGL